createdAt,value
2023-05-25T00:00:31.381Z,97933.44
2023-05-25T00:10:35.209Z,97928.69
2023-05-25T00:20:38.004Z,97932.62
2023-05-25T00:30:41.258Z,97925.00
2023-05-25T00:40:43.930Z,97914.72
2023-05-25T00:50:47.439Z,97907.09
2023-05-25T01:00:53.423Z,97897.22
2023-05-25T01:10:58.054Z,97884.75
2023-05-25T01:21:13.621Z,97879.88
2023-05-25T01:31:18.452Z,97888.81
2023-05-25T01:41:22.561Z,97884.94
2023-05-25T01:51:41.215Z,97888.59
2023-05-25T02:01:47.121Z,97891.69
2023-05-25T02:11:50.966Z,97890.63
2023-05-25T02:21:53.461Z,97886.91
2023-05-25T02:31:57.520Z,97879.34
2023-05-25T02:42:01.575Z,97871.03
2023-05-25T02:52:05.702Z,97865.38
2023-05-25T03:02:09.168Z,97869.69
2023-05-25T03:12:13.372Z,97868.91
2023-05-25T03:22:16.041Z,97870.22
2023-05-25T03:32:19.887Z,97876.69
2023-05-25T03:42:22.931Z,97898.88
2023-05-25T03:52:25.469Z,97881.56
2023-05-25T04:02:37.754Z,97882.94
2023-05-25T04:23:20.262Z,97906.75
2023-05-25T04:33:24.481Z,97909.25
2023-05-25T04:43:28.386Z,97921.78
2023-05-25T04:53:33.104Z,97932.09
2023-05-25T05:03:44.202Z,97942.44
2023-05-25T05:13:54.160Z,97948.28
2023-05-25T05:24:01.124Z,97944.31
2023-05-25T05:34:04.517Z,97942.78
2023-05-25T05:44:08.807Z,97948.53
2023-05-25T05:54:12.123Z,97959.94
2023-05-25T06:04:17.067Z,97963.19
2023-05-25T06:14:19.749Z,97970.28
2023-05-25T06:24:22.469Z,97974.31
2023-05-25T06:34:26.214Z,97974.28
2023-05-25T06:44:29.108Z,97976.66
2023-05-25T06:54:32.004Z,97983.66
2023-05-25T07:04:36.076Z,97984.06
2023-05-25T07:14:39.272Z,98010.19
2023-05-25T07:24:42.703Z,98004.28
2023-05-25T07:34:46.480Z,98013.66
2023-05-25T07:44:49.622Z,98002.44
2023-05-25T07:54:53.643Z,98019.97
2023-05-25T08:05:02.971Z,98031.78
2023-05-25T08:15:06.676Z,98029.97
2023-05-25T08:25:10.703Z,98039.81
2023-05-25T08:35:14.995Z,98043.16
2023-05-25T08:45:33.506Z,98060.94
2023-05-25T08:55:45.373Z,98059.06
2023-05-25T09:05:49.571Z,98072.50
2023-05-25T09:15:54.295Z,98071.78
2023-05-25T09:25:59.099Z,98079.69
2023-05-25T09:36:02.948Z,98084.12
2023-05-25T09:46:06.123Z,98086.38
2023-05-25T09:56:13.157Z,98101.72
2023-05-25T10:06:17.277Z,98111.06
2023-05-25T10:16:24.739Z,98119.78
2023-05-25T10:26:29.151Z,98129.22
2023-05-25T10:36:39.177Z,98130.03
2023-05-25T10:46:45.372Z,98144.56
2023-05-25T10:57:10.633Z,98148.75
2023-05-25T11:07:17.489Z,98155.22
2023-05-25T11:17:21.973Z,98145.38
2023-05-25T11:27:29.598Z,98163.22
2023-05-25T11:37:34.444Z,98156.78
2023-05-25T11:47:38.134Z,98156.09
2023-05-25T11:57:42.424Z,98158.16
2023-05-25T12:07:49.660Z,98153.09
2023-05-25T12:17:55.091Z,98145.12
2023-05-25T12:28:13.293Z,98155.75
2023-05-25T12:38:18.758Z,98154.75
2023-05-25T12:48:30.973Z,98154.91
2023-05-25T12:58:35.567Z,98149.63
2023-05-25T13:08:53.140Z,98152.84
2023-05-25T13:18:56.942Z,98148.03
2023-05-25T13:29:01.346Z,98152.69
2023-05-25T13:39:07.023Z,98145.06
2023-05-25T13:49:13.381Z,98147.13
2023-05-25T13:59:17.316Z,98150.81
2023-05-25T14:09:28.273Z,98143.81
2023-05-25T14:19:34.446Z,98145.50
2023-05-25T14:29:40.869Z,98155.16
2023-05-25T14:39:44.558Z,98140.94
2023-05-25T14:49:47.798Z,98142.38
2023-05-25T14:59:51.271Z,98136.78
2023-05-25T15:09:54.647Z,98138.69
2023-05-25T15:19:58.447Z,98141.34
2023-05-25T15:30:01.756Z,98134.50
2023-05-25T15:40:08.252Z,98143.78
2023-05-25T15:50:14.084Z,98139.19
2023-05-25T16:00:17.479Z,98131.13
2023-05-25T16:10:20.669Z,98140.81
2023-05-25T16:20:25.717Z,98134.37
2023-05-25T16:30:30.030Z,98139.75
2023-05-25T16:40:34.786Z,98137.34
2023-05-25T16:50:39.058Z,98134.59
2023-05-25T17:00:44.492Z,98132.16
2023-05-25T17:10:49.905Z,98130.16
2023-05-25T17:20:58.418Z,98135.28
2023-05-25T17:31:02.118Z,98148.00
2023-05-25T17:41:05.887Z,98142.97
2023-05-25T17:51:09.365Z,98148.25
2023-05-25T18:01:12.753Z,98151.31
2023-05-25T18:11:15.802Z,98144.88
2023-05-25T18:21:18.378Z,98146.03
2023-05-25T18:31:22.273Z,98141.66
2023-05-25T18:41:29.311Z,98147.94
2023-05-25T18:51:35.450Z,98152.31
2023-05-25T19:01:40.485Z,98160.53
2023-05-25T19:11:45.992Z,98163.34
2023-05-25T19:21:50.018Z,98165.41
2023-05-25T19:31:55.159Z,98171.87
2023-05-25T19:42:00.025Z,98180.09
2023-05-25T19:52:06.290Z,98198.03
2023-05-25T20:02:10.570Z,98220.00
2023-05-25T20:12:16.168Z,98221.94
2023-05-25T20:22:19.925Z,98234.44
2023-05-25T20:32:23.707Z,98226.72
2023-05-25T20:42:27.992Z,98230.22
2023-05-25T20:52:32.102Z,98227.88
2023-05-25T21:02:35.305Z,98227.47
2023-05-25T21:12:39.049Z,98234.94
2023-05-25T21:22:42.500Z,98236.91
2023-05-25T21:32:45.654Z,98229.19
2023-05-25T21:42:51.113Z,98239.28
2023-05-25T21:52:54.863Z,98241.19
2023-05-25T22:02:57.941Z,98244.50
2023-05-25T22:13:01.901Z,98236.38
2023-05-25T22:23:05.092Z,98249.25
2023-05-25T22:33:08.195Z,98246.03
2023-05-25T22:43:13.722Z,98240.78
2023-05-25T22:53:16.879Z,98254.09
2023-05-25T23:03:20.653Z,98259.75
2023-05-25T23:13:25.233Z,98250.97
2023-05-25T23:23:28.570Z,98252.19
2023-05-25T23:33:33.469Z,98250.34
2023-05-25T23:43:36.654Z,98234.38
2023-05-25T23:53:40.056Z,98227.09
